createdAt,value
2018-12-14T00:00:11.792Z,94779.65
2018-12-14T00:03:15.123Z,94770.00
2018-12-14T00:06:18.507Z,94781.45
2018-12-14T00:09:21.858Z,94784.86
2018-12-14T00:12:25.262Z,94785.63
2018-12-14T00:15:29.339Z,94786.14
2018-12-14T00:18:32.671Z,94784.06
2018-12-14T00:21:35.971Z,94784.59
2018-12-14T00:24:39.372Z,94788.23
2018-12-14T00:27:42.669Z,94786.68
2018-12-14T00:30:46.042Z,94787.45
2018-12-14T00:33:49.453Z,94790.55
2018-12-14T00:36:52.821Z,94793.92
2018-12-14T00:39:56.165Z,94791.05
2018-12-14T00:42:59.554Z,94786.39
2018-12-14T00:46:02.933Z,94797.87
2018-12-14T00:49:06.306Z,94796.53
2018-12-14T00:52:09.670Z,94788.98
2018-12-14T00:55:13.051Z,94791.34
2018-12-14T00:58:16.700Z,94792.84
2018-12-14T01:01:20.041Z,94799.33
2018-12-14T01:04:23.366Z,94807.41
2018-12-14T01:07:26.720Z,94800.90
2018-12-14T01:10:30.040Z,94808.41
2018-12-14T01:13:33.363Z,94810.52
2018-12-14T01:16:36.878Z,94810.02
2018-12-14T01:19:40.417Z,94811.86
2018-12-14T01:22:43.800Z,94810.52
2018-12-14T01:25:47.186Z,94811.80
2018-12-14T01:28:50.501Z,94811.79
2018-12-14T01:31:53.948Z,94818.08
2018-12-14T01:34:57.253Z,94817.56
2018-12-14T01:38:00.574Z,94820.15
2018-12-14T01:41:03.946Z,94810.80
2018-12-14T01:44:07.326Z,94818.63
2018-12-14T01:47:10.664Z,94817.01
2018-12-14T01:50:14.093Z,94818.06
2018-12-14T01:53:17.398Z,94826.42
2018-12-14T01:56:20.707Z,94826.15
2018-12-14T01:59:24.090Z,94836.30
2018-12-14T02:05:44.242Z,94823.51
2018-12-14T02:08:47.549Z,94823.27
2018-12-14T02:11:50.885Z,94819.17
2018-12-14T02:14:54.338Z,94812.18
2018-12-14T02:17:57.646Z,94817.91
2018-12-14T02:21:00.974Z,94812.39
2018-12-14T02:24:04.311Z,94807.95
2018-12-14T02:27:07.673Z,94808.70
2018-12-14T02:30:36.658Z,94807.33
2018-12-14T02:33:40.026Z,94801.61
2018-12-14T02:36:43.322Z,94795.87
2018-12-14T02:39:46.637Z,94803.64
2018-12-14T02:42:49.949Z,94804.17
2018-12-14T02:45:53.292Z,94797.94
2018-12-14T02:48:56.614Z,94805.52
2018-12-14T02:51:59.993Z,94808.14
2018-12-14T02:55:03.524Z,94806.28
2018-12-14T02:58:06.942Z,94801.90
2018-12-14T03:01:10.309Z,94806.05
2018-12-14T03:04:13.611Z,94812.83
2018-12-14T03:07:17.004Z,94815.42
2018-12-14T03:10:20.444Z,94814.62
2018-12-14T03:13:23.778Z,94813.30
2018-12-14T03:16:27.110Z,94809.17
2018-12-14T03:19:30.509Z,94813.81
2018-12-14T03:25:51.273Z,94818.50
2018-12-14T03:28:55.279Z,94813.53
2018-12-14T03:31:58.882Z,94820.50
2018-12-14T03:35:02.297Z,94816.13
2018-12-14T03:38:05.612Z,94811.19
2018-12-14T03:41:09.101Z,94821.09
2018-12-14T03:44:12.413Z,94826.26
2018-12-14T03:47:15.786Z,94830.20
2018-12-14T03:50:19.193Z,94830.95
2018-12-14T03:53:22.509Z,94828.03
2018-12-14T03:56:25.861Z,94826.21
2018-12-14T03:59:29.182Z,94832.73
2018-12-14T04:02:32.578Z,94840.05
2018-12-14T04:05:36.241Z,94842.36
2018-12-14T04:08:39.559Z,94838.67
2018-12-14T04:11:42.932Z,94844.86
2018-12-14T04:14:46.245Z,94839.16
2018-12-14T04:17:49.591Z,94843.28
2018-12-14T04:20:52.943Z,94854.01
2018-12-14T04:23:56.259Z,94847.21
2018-12-14T04:26:59.570Z,94856.83
2018-12-14T04:30:03.342Z,94848.19
2018-12-14T04:33:06.691Z,94855.20
2018-12-14T04:36:10.054Z,94851.03
2018-12-14T04:39:13.464Z,94858.55
2018-12-14T04:42:16.758Z,94864.78
2018-12-14T04:45:20.279Z,94873.64
2018-12-14T04:48:23.660Z,94874.64
2018-12-14T04:51:26.985Z,94873.16
2018-12-14T04:54:30.294Z,94869.53
2018-12-14T04:57:33.610Z,94872.85
2018-12-14T05:00:37.024Z,94870.80
2018-12-14T05:03:40.422Z,94876.45
2018-12-14T05:06:43.786Z,94878.27
2018-12-14T05:09:47.164Z,94888.15
2018-12-14T05:12:55.982Z,94888.72
2018-12-14T05:15:55.986Z,94892.28
2018-12-14T05:18:59.311Z,94893.59
2018-12-14T05:22:03.165Z,94892.05
2018-12-14T05:25:06.508Z,94892.05
2018-12-14T05:28:09.838Z,94897.06
2018-12-14T05:31:13.208Z,94895.80
2018-12-14T05:34:16.563Z,94892.92
2018-12-14T05:37:20.044Z,94900.78
2018-12-14T05:40:23.373Z,94896.88
2018-12-14T05:43:26.681Z,94908.88
2018-12-14T05:46:29.998Z,94912.48
2018-12-14T05:49:33.305Z,94912.94
2018-12-14T05:52:36.638Z,94911.06
2018-12-14T05:55:40.166Z,94911.91
2018-12-14T05:58:43.511Z,94909.34
2018-12-14T06:01:46.849Z,94911.75
2018-12-14T06:04:50.163Z,94909.97
2018-12-14T06:07:53.494Z,94911.56
2018-12-14T06:10:56.847Z,94918.47
2018-12-14T06:14:00.249Z,94916.09
2018-12-14T06:17:03.601Z,94913.73
2018-12-14T06:20:07.221Z,94919.48
2018-12-14T06:23:10.554Z,94915.13
2018-12-14T06:26:14.013Z,94923.68
2018-12-14T06:29:17.389Z,94923.44
2018-12-14T06:32:20.752Z,94924.92
2018-12-14T06:35:24.154Z,94927.17
2018-12-14T06:38:27.455Z,94931.56
2018-12-14T06:41:30.852Z,94933.44
2018-12-14T06:44:34.241Z,94935.48
2018-12-14T06:47:37.595Z,94926.55
2018-12-14T06:50:40.981Z,94933.08
2018-12-14T06:53:44.317Z,94931.16
2018-12-14T06:56:47.681Z,94937.12
2018-12-14T06:59:51.081Z,94937.34
2018-12-14T07:02:54.438Z,94938.58
2018-12-14T07:05:57.749Z,94944.29
2018-12-14T07:09:01.099Z,94945.89
2018-12-14T07:12:08.101Z,94944.87
2018-12-14T07:15:11.627Z,94947.52
2018-12-14T07:18:15.001Z,94953.54
2018-12-14T07:21:18.527Z,94942.41
2018-12-14T07:24:21.931Z,94946.09
2018-12-14T07:27:25.325Z,94951.78
2018-12-14T07:30:28.726Z,94951.05
2018-12-14T07:33:32.129Z,94961.97
2018-12-14T07:36:35.529Z,94962.48
2018-12-14T07:39:38.905Z,94959.18
2018-12-14T07:42:43.021Z,94960.02
2018-12-14T07:45:46.430Z,94968.28
2018-12-14T07:48:49.825Z,94967.80
2018-12-14T07:51:53.170Z,94976.09
2018-12-14T07:54:56.520Z,94973.81
2018-12-14T07:57:59.941Z,94974.67
2018-12-14T08:01:03.261Z,94984.98
2018-12-14T08:04:06.590Z,94986.63
2018-12-14T08:07:10.210Z,94989.72
2018-12-14T08:10:13.730Z,94986.91
2018-12-14T08:13:17.096Z,94991.74
2018-12-14T08:16:20.406Z,94996.06
2018-12-14T08:19:23.796Z,94993.22
2018-12-14T08:22:27.332Z,94986.69
2018-12-14T08:25:30.726Z,94996.88
2018-12-14T08:28:34.131Z,95002.33
2018-12-14T08:31:37.635Z,95008.62
2018-12-14T08:34:40.970Z,95007.59
2018-12-14T08:37:44.276Z,95006.70
2018-12-14T08:40:47.613Z,95011.02
2018-12-14T08:43:51.027Z,95016.14
2018-12-14T08:46:54.421Z,95027.40
2018-12-14T08:49:57.822Z,95031.85
2018-12-14T08:53:01.177Z,95037.36
2018-12-14T08:56:04.875Z,95039.17
2018-12-14T08:59:08.191Z,95030.94
2018-12-14T09:02:11.525Z,95033.19
2018-12-14T09:05:14.925Z,95036.34
2018-12-14T09:08:18.424Z,95037.50
2018-12-14T09:11:21.840Z,95041.51
2018-12-14T09:14:25.236Z,95045.65
2018-12-14T09:17:28.567Z,95046.16
2018-12-14T09:20:31.996Z,95047.19
2018-12-14T09:23:35.297Z,95046.75
2018-12-14T09:26:38.641Z,95050.71
2018-12-14T09:29:42.021Z,95047.45
2018-12-14T09:32:45.381Z,95054.50
2018-12-14T09:35:48.821Z,95050.11
2018-12-14T09:38:52.462Z,95050.98
2018-12-14T09:41:55.884Z,95047.83
2018-12-14T09:48:07.950Z,95053.83
2018-12-14T09:51:12.472Z,95052.31
2018-12-14T09:54:16.107Z,95053.91
2018-12-14T09:57:19.898Z,95054.01
2018-12-14T10:00:23.294Z,95045.97
2018-12-14T10:03:26.628Z,95055.02
2018-12-14T10:06:29.985Z,95058.43
2018-12-14T10:09:33.318Z,95053.27
2018-12-14T10:12:36.787Z,95058.48
2018-12-14T10:15:40.180Z,95060.56
2018-12-14T10:18:43.826Z,95056.19
2018-12-14T10:21:47.201Z,95055.19
2018-12-14T10:24:50.594Z,95053.66
2018-12-14T10:27:53.942Z,95055.94
2018-12-14T10:30:57.279Z,95056.93
2018-12-14T10:34:00.598Z,95059.33
2018-12-14T10:37:03.999Z,95059.38
2018-12-14T10:40:12.002Z,95061.42
2018-12-14T10:43:15.409Z,95059.22
2018-12-14T10:46:18.803Z,95061.31
2018-12-14T10:49:22.202Z,95064.19
2018-12-14T10:52:25.564Z,95063.70
2018-12-14T10:55:28.902Z,95062.09
2018-12-14T10:58:32.210Z,95060.17
2018-12-14T11:01:41.127Z,95069.14
2018-12-14T11:04:44.521Z,95065.77
2018-12-14T11:07:47.921Z,95068.92
2018-12-14T11:10:51.320Z,95076.44
2018-12-14T11:13:54.626Z,95071.23
2018-12-14T11:16:57.985Z,95067.39
2018-12-14T11:20:01.303Z,95072.88
2018-12-14T11:23:04.842Z,95066.11
2018-12-14T11:26:08.153Z,95074.98
2018-12-14T11:29:11.530Z,95069.06
2018-12-14T11:32:14.926Z,95065.19
2018-12-14T11:35:18.323Z,95066.40
2018-12-14T11:38:21.629Z,95069.34
2018-12-14T11:41:25.152Z,95065.66
2018-12-14T11:44:28.453Z,95065.11
2018-12-14T11:47:31.761Z,95065.38
2018-12-14T11:50:35.107Z,95068.70
2018-12-14T11:53:38.453Z,95065.23
2018-12-14T11:56:41.884Z,95064.56
2018-12-14T11:59:45.265Z,95060.48
2018-12-14T12:02:48.597Z,95055.08
2018-12-14T12:05:51.926Z,95058.41
2018-12-14T12:08:55.320Z,95058.64
2018-12-14T12:11:58.709Z,95054.73
2018-12-14T12:15:02.071Z,95051.37
2018-12-14T12:18:05.514Z,95051.16
2018-12-14T12:21:08.920Z,95051.90
2018-12-14T12:24:12.278Z,95056.04
2018-12-14T12:27:15.616Z,95048.49
2018-12-14T12:30:18.963Z,95051.16
2018-12-14T12:33:22.309Z,95055.91
2018-12-14T12:36:25.714Z,95057.70
2018-12-14T12:39:29.027Z,95049.09
2018-12-14T12:42:32.366Z,95047.06
2018-12-14T12:45:35.801Z,95046.48
2018-12-14T12:48:39.559Z,95047.30
2018-12-14T12:51:43.072Z,95042.78
2018-12-14T12:54:46.433Z,95046.70
2018-12-14T12:57:49.771Z,95045.44
2018-12-14T13:00:53.126Z,95036.00
2018-12-14T13:03:56.574Z,95035.72
2018-12-14T13:07:00.010Z,95046.73
2018-12-14T13:10:03.493Z,95047.91
2018-12-14T13:13:06.989Z,95052.27
2018-12-14T13:16:10.303Z,95055.45
2018-12-14T13:19:13.641Z,95054.14
2018-12-14T13:22:17.123Z,95061.42
2018-12-14T13:25:20.578Z,95058.87
2018-12-14T13:28:24.186Z,95057.08
2018-12-14T13:31:27.484Z,95051.13
2018-12-14T13:34:31.021Z,95057.13
2018-12-14T13:37:34.442Z,95063.38
2018-12-14T13:40:37.759Z,95073.24
2018-12-14T13:43:41.273Z,95079.97
2018-12-14T13:46:44.735Z,95084.19
2018-12-14T13:49:48.147Z,95086.00
2018-12-14T13:52:51.625Z,95089.86
2018-12-14T13:55:55.022Z,95093.94
2018-12-14T13:58:58.341Z,95096.03
2018-12-14T14:02:01.641Z,95101.45
2018-12-14T14:05:05.550Z,95107.80
2018-12-14T14:08:08.854Z,95109.86
2018-12-14T14:11:12.165Z,95108.50
2018-12-14T14:14:15.534Z,95109.73
2018-12-14T14:17:18.938Z,95113.19
2018-12-14T14:20:22.450Z,95114.01
2018-12-14T14:23:25.939Z,95113.44
2018-12-14T14:26:29.321Z,95120.66
2018-12-14T14:29:32.653Z,95125.84
2018-12-14T14:32:36.032Z,95127.69
2018-12-14T14:35:39.469Z,95129.78
2018-12-14T14:38:42.782Z,95135.84
2018-12-14T14:41:46.135Z,95134.30
2018-12-14T14:44:49.525Z,95133.92
2018-12-14T14:47:52.839Z,95131.21
2018-12-14T14:50:56.220Z,95138.89
2018-12-14T14:53:59.533Z,95135.73
2018-12-14T14:57:02.874Z,95138.30
2018-12-14T15:00:07.293Z,95145.13
2018-12-14T15:03:10.683Z,95140.70
2018-12-14T15:06:14.132Z,95153.72
2018-12-14T15:09:18.827Z,95153.52
2018-12-14T15:12:22.278Z,95157.55
2018-12-14T15:15:25.680Z,95166.73
2018-12-14T15:18:29.031Z,95165.70
2018-12-14T15:21:32.343Z,95162.52
2018-12-14T15:24:35.687Z,95165.16
2018-12-14T15:27:39.083Z,95167.73
2018-12-14T15:30:42.409Z,95171.42
2018-12-14T15:33:45.721Z,95171.63
2018-12-14T15:36:49.079Z,95181.21
2018-12-14T15:39:52.475Z,95179.59
2018-12-14T15:42:55.819Z,95188.31
2018-12-14T15:45:59.137Z,95190.67
2018-12-14T15:49:02.570Z,95197.84
2018-12-14T15:52:05.918Z,95199.06
2018-12-14T15:55:09.338Z,95198.31
2018-12-14T15:58:12.681Z,95204.11
2018-12-14T16:01:16.066Z,95205.09
2018-12-14T16:04:19.476Z,95198.87
2018-12-14T16:07:22.865Z,95202.53
2018-12-14T16:10:26.252Z,95200.40
2018-12-14T16:13:29.627Z,95201.23
2018-12-14T16:16:33.245Z,95206.48
2018-12-14T16:19:36.673Z,95210.86
2018-12-14T16:22:40.184Z,95214.70
2018-12-14T16:25:43.586Z,95216.80
2018-12-14T16:28:46.977Z,95223.75
2018-12-14T16:31:50.318Z,95219.02
2018-12-14T16:34:53.632Z,95225.33
2018-12-14T16:37:56.971Z,95229.23
2018-12-14T16:41:00.376Z,95227.39
2018-12-14T16:44:03.686Z,95224.17
2018-12-14T16:47:07.064Z,95229.19
2018-12-14T16:50:10.472Z,95234.02
2018-12-14T16:53:13.813Z,95234.25
2018-12-14T16:56:17.187Z,95237.14
2018-12-14T16:59:20.589Z,95239.18
2018-12-14T17:02:24.009Z,95243.05
2018-12-14T17:05:27.327Z,95243.95
2018-12-14T17:08:30.637Z,95247.63
2018-12-14T17:15:08.270Z,95256.98
2018-12-14T17:18:11.585Z,95253.94
2018-12-14T17:21:14.925Z,95253.54
2018-12-14T17:24:18.278Z,95263.20
2018-12-14T17:27:21.609Z,95266.59
2018-12-14T17:30:24.983Z,95267.62
2018-12-14T17:33:28.329Z,95269.39
2018-12-14T17:36:31.693Z,95271.56
2018-12-14T17:39:35.073Z,95269.88
2018-12-14T17:42:38.481Z,95269.99
2018-12-14T17:45:41.886Z,95271.09
2018-12-14T17:48:45.181Z,95278.62
2018-12-14T17:51:48.725Z,95287.69
2018-12-14T17:54:52.068Z,95283.56
2018-12-14T17:57:55.478Z,95284.86
2018-12-14T18:00:58.910Z,95289.31
2018-12-14T18:04:02.331Z,95285.33
2018-12-14T18:07:05.783Z,95288.25
2018-12-14T18:10:09.312Z,95299.73
2018-12-14T18:13:12.702Z,95297.83
2018-12-14T18:16:16.648Z,95294.71
2018-12-14T18:19:20.658Z,95299.50
2018-12-14T18:22:24.346Z,95302.25
2018-12-14T18:25:27.825Z,95302.52
2018-12-14T18:28:31.226Z,95305.58
2018-12-14T18:31:34.731Z,95302.52
2018-12-14T18:34:38.009Z,95308.24
2018-12-14T18:37:41.418Z,95312.66
2018-12-14T18:40:44.816Z,95312.14
2018-12-14T18:43:48.165Z,95314.84
2018-12-14T18:46:51.480Z,95311.91
2018-12-14T18:49:54.786Z,95318.14
2018-12-14T18:52:58.125Z,95319.67
2018-12-14T18:56:01.534Z,95318.02
2018-12-14T18:59:05.111Z,95311.26
2018-12-14T19:02:08.526Z,95323.89
2018-12-14T19:05:11.833Z,95327.06
2018-12-14T19:08:15.220Z,95325.86
2018-12-14T19:11:18.531Z,95330.28
2018-12-14T19:14:21.834Z,95333.44
2018-12-14T19:17:25.166Z,95333.53
2018-12-14T19:20:28.493Z,95333.48
2018-12-14T19:23:31.859Z,95337.56
2018-12-14T19:26:35.161Z,95345.38
2018-12-14T19:29:38.498Z,95343.09
2018-12-14T19:32:41.813Z,95350.86
2018-12-14T19:35:45.248Z,95354.36
2018-12-14T19:38:48.557Z,95351.98
2018-12-14T19:41:52.214Z,95366.16
2018-12-14T19:44:55.601Z,95364.55
2018-12-14T19:47:58.986Z,95371.31
2018-12-14T19:51:02.517Z,95373.41
2018-12-14T19:54:06.076Z,95384.94
2018-12-14T19:57:09.525Z,95391.27
2018-12-14T20:00:13.244Z,95391.70
2018-12-14T20:03:16.566Z,95384.79
2018-12-14T20:06:19.941Z,95390.70
2018-12-14T20:09:23.242Z,95393.45
2018-12-14T20:12:26.628Z,95394.75
2018-12-14T20:15:29.966Z,95395.49
2018-12-14T20:18:33.321Z,95389.13
2018-12-14T20:21:36.682Z,95396.14
2018-12-14T20:24:40.001Z,95391.13
2018-12-14T20:27:43.349Z,95386.56
2018-12-14T20:30:46.750Z,95391.64
2018-12-14T20:33:56.116Z,95400.31
2018-12-14T20:36:59.469Z,95400.66
2018-12-14T20:40:02.866Z,95406.59
2018-12-14T20:43:06.184Z,95404.45
2018-12-14T20:46:09.493Z,95414.61
2018-12-14T20:49:12.909Z,95410.71
2018-12-14T20:52:16.402Z,95411.73
2018-12-14T20:55:19.856Z,95417.45
2018-12-14T20:58:23.225Z,95419.56
2018-12-14T21:01:26.729Z,95420.84
2018-12-14T21:04:30.110Z,95423.23
2018-12-14T21:07:33.519Z,95424.73
2018-12-14T21:10:36.903Z,95426.27
2018-12-14T21:13:40.246Z,95427.92
2018-12-14T21:16:43.597Z,95427.23
2018-12-14T21:19:46.926Z,95427.23
2018-12-14T21:22:50.300Z,95432.55
2018-12-14T21:25:53.646Z,95427.58
2018-12-14T21:28:57.177Z,95430.56
2018-12-14T21:32:00.656Z,95426.84
2018-12-14T21:35:05.369Z,95430.50
2018-12-14T21:38:08.673Z,95428.08
2018-12-14T21:41:12.023Z,95430.80
2018-12-14T21:44:15.325Z,95431.38
2018-12-14T21:47:18.676Z,95433.36
2018-12-14T21:50:22.012Z,95436.84
2018-12-14T21:53:25.386Z,95440.48
2018-12-14T21:56:28.764Z,95433.80
2018-12-14T21:59:32.124Z,95434.03
2018-12-14T22:02:35.441Z,95432.78
2018-12-14T22:05:38.774Z,95435.91
2018-12-14T22:08:42.125Z,95435.16
2018-12-14T22:11:46.498Z,95433.00
2018-12-14T22:14:49.833Z,95431.34
2018-12-14T22:17:53.174Z,95427.91
2018-12-14T22:20:56.472Z,95433.34
2018-12-14T22:23:59.931Z,95426.60
2018-12-14T22:27:03.294Z,95427.56
2018-12-14T22:30:06.986Z,95433.84
2018-12-14T22:33:10.394Z,95426.77
2018-12-14T22:36:13.769Z,95427.01
2018-12-14T22:39:17.113Z,95425.94
2018-12-14T22:42:20.417Z,95426.50
2018-12-14T22:45:23.785Z,95424.17
2018-12-14T22:48:27.231Z,95425.25
2018-12-14T22:51:30.539Z,95424.91
2018-12-14T22:54:35.158Z,95427.58
2018-12-14T22:57:39.461Z,95425.60
2018-12-14T23:00:48.397Z,95429.23
2018-12-14T23:03:51.906Z,95425.03
2018-12-14T23:06:55.245Z,95432.52
2018-12-14T23:09:58.600Z,95428.16
2018-12-14T23:13:01.971Z,95431.67
2018-12-14T23:16:05.306Z,95423.78
2018-12-14T23:19:08.726Z,95429.16
2018-12-14T23:22:12.037Z,95430.93
2018-12-14T23:25:15.441Z,95431.14
2018-12-14T23:28:18.807Z,95425.53
2018-12-14T23:31:22.188Z,95420.34
2018-12-14T23:34:25.502Z,95421.86
2018-12-14T23:37:28.803Z,95419.14
2018-12-14T23:40:32.092Z,95422.59
2018-12-14T23:43:35.445Z,95423.27
2018-12-14T23:46:38.772Z,95425.37
2018-12-14T23:49:42.876Z,95427.07
2018-12-14T23:52:46.589Z,95423.13
2018-12-14T23:55:49.906Z,95429.10
2018-12-14T23:58:53.240Z,95431.04
